Time;durP1;ratioP1;P1;durP2;ratioP2;P2;SDS_P1;SDS_P2;PMS_P1;PMS_P2;Temp;Humidity;BMP_temperature;BMP_pressure;BME280_temperature;BME280_humidity;BME280_pressure;Samples;Min_cycle;Max_cycle;Signal;HPM_P1;HPM_P2
2022/02/03 00:01:05;;;;;;;3.03;2.00;;;;;;;;;;5071584;28;20100;-53
2022/02/03 00:03:49;;;;;;;3.53;2.60;;;;;;;;;;5072122;28;20497;-51
2022/02/03 00:06:20;;;;;;;8.20;2.25;;;;;;;;;;5072345;28;20028;-51
2022/02/03 00:25:27;;;;;;;2.55;1.70;;;;;;;;;;5071318;28;20053;-53
2022/02/03 00:30:35;;;;;;;2.22;1.38;;;;;;;;;;5071751;28;20465;-51
2022/02/03 00:35:48;;;;;;;2.60;1.70;;;;;;;;;;5072005;28;20377;-51
2022/02/03 00:49:06;;;;;;;3.30;2.10;;;;;;;;;;5070607;28;20514;-50
2022/02/03 00:51:33;;;;;;;2.50;1.67;;;;;;;;;;5071790;28;20081;-50
2022/02/03 00:53:59;;;;;;;2.10;1.40;;;;;;;;;;5071061;28;20458;-53
2022/02/03 00:56:34;;;;;;;2.28;1.65;;;;;;;;;;5071149;28;20431;-52
2022/02/03 00:59:08;;;;;;;2.00;1.40;;;;;;;;;;5070731;28;20849;-50
2022/02/03 01:01:37;;;;;;;1.95;1.50;;;;;;;;;;5072802;28;20180;-49
2022/02/03 01:04:07;;;;;;;2.15;1.27;;;;;;;;;;5074626;28;20043;-53
2022/02/03 01:06:35;;;;;;;1.83;1.30;;;;;;;;;;5075555;28;20116;-51
2022/02/03 01:09:02;;;;;;;2.13;1.42;;;;;;;;;;5074587;28;20021;-52
2022/02/03 01:11:35;;;;;;;2.25;1.50;;;;;;;;;;5075262;28;20138;-50
2022/02/03 01:14:08;;;;;;;2.25;1.70;;;;;;;;;;5074778;28;20116;-50
2022/02/03 01:44:01;;;;;;;1.10;1.00;;;;;;;;;;5053992;28;20386;-52
2022/02/03 01:46:49;;;;;;;2.28;1.60;;;;;;;;;;5055244;28;20066;-49
2022/02/03 01:49:17;;;;;;;1.60;1.00;;;;;;;;;;5054709;28;20430;-51
2022/02/03 01:51:54;;;;;;;1.95;1.10;;;;;;;;;;5073115;28;20029;-53
2022/02/03 01:54:25;;;;;;;1.85;1.20;;;;;;;;;;5074344;28;20060;-51
2022/02/03 01:56:56;;;;;;;1.55;1.10;;;;;;;;;;5073441;28;20461;-50
2022/02/03 01:59:25;;;;;;;2.83;1.27;;;;;;;;;;5074608;28;20381;-52
2022/02/03 02:01:51;;;;;;;2.55;1.30;;;;;;;;;;5073289;28;20297;-53
2022/02/03 02:04:17;;;;;;;1.65;1.15;;;;;;;;;;5074195;28;20024;-53
2022/02/03 02:07:02;;;;;;;1.85;1.00;;;;;;;;;;5074292;28;20409;-51
2022/02/03 02:09:35;;;;;;;1.70;1.20;;;;;;;;;;5074156;28;20161;-54
2022/02/03 02:12:22;;;;;;;2.10;1.10;;;;;;;;;;5073524;28;20101;-53
2022/02/03 02:39:30;;;;;;;1.58;1.08;;;;;;;;;;5062885;28;20025;-52
2022/02/03 02:44:48;;;;;;;1.40;0.88;;;;;;;;;;5067869;28;20024;-51
2022/02/03 02:47:18;;;;;;;4.45;1.63;;;;;;;;;;5061634;28;20049;-50
2022/02/03 02:49:52;;;;;;;1.70;1.15;;;;;;;;;;5064618;28;20016;-52
2022/02/03 02:52:26;;;;;;;1.33;0.90;;;;;;;;;;5064662;28;20355;-50
2022/02/03 03:31:05;;;;;;;1.67;0.93;;;;;;;;;;5062101;28;20055;-54
2022/02/03 03:33:51;;;;;;;0.85;0.70;;;;;;;;;;5060625;28;20025;-53
2022/02/03 03:36:19;;;;;;;1.30;0.93;;;;;;;;;;5065157;28;20020;-50
2022/02/03 03:38:48;;;;;;;1.40;0.80;;;;;;;;;;5061547;28;20116;-51
2022/02/03 03:41:16;;;;;;;1.05;0.75;;;;;;;;;;5062671;28;20028;-54
2022/02/03 03:43:43;;;;;;;1.10;0.77;;;;;;;;;;5060894;28;20017;-53
2022/02/03 03:46:09;;;;;;;1.05;0.80;;;;;;;;;;5064729;28;20094;-50
2022/02/03 03:48:40;;;;;;;1.20;0.90;;;;;;;;;;5062923;28;20021;-49
2022/02/03 03:51:09;;;;;;;0.90;0.70;;;;;;;;;;5061650;28;20026;-49
2022/02/03 03:53:45;;;;;;;1.40;1.17;;;;;;;;;;5060558;28;20013;-49
2022/02/03 03:56:37;;;;;;;1.60;1.00;;;;;;;;;;5060302;28;20029;-49
2022/02/03 03:59:39;;;;;;;1.00;0.68;;;;;;;;;;5060090;28;20025;-49
2022/02/03 04:31:50;;;;;;;0.82;0.80;;;;;;;;;;5063285;28;20028;-54
2022/02/03 05:02:08;;;;;;;1.08;0.77;;;;;;;;;;5059771;28;20033;-52
2022/02/03 05:07:34;;;;;;;1.45;0.70;;;;;;;;;;5059934;28;20029;-54
2022/02/03 05:10:39;;;;;;;1.15;0.60;;;;;;;;;;5061536;28;20507;-49
2022/02/03 05:19:00;;;;;;;0.80;0.50;;;;;;;;;;5061709;28;20078;-52
2022/02/03 05:25:19;;;;;;;0.65;0.50;;;;;;;;;;5040031;28;20029;-50
2022/02/03 05:54:42;;;;;;;0.77;0.52;;;;;;;;;;5039885;28;20033;-58
2022/02/03 06:04:26;;;;;;;0.57;0.57;;;;;;;;;;5064289;28;20032;-58
2022/02/03 06:09:57;;;;;;;3.50;0.63;;;;;;;;;;5065080;28;20024;-57
2022/02/03 06:14:58;;;;;;;0.80;0.50;;;;;;;;;;5061510;28;20029;-58
2022/02/03 06:17:36;;;;;;;;;;;;;;;;;;5062914;28;20025;-58
2022/02/03 06:22:52;;;;;;;0.60;0.43;;;;;;;;;;5063913;28;20496;-54
2022/02/03 06:27:47;;;;;;;1.02;0.73;;;;;;;;;;5064885;28;20033;-55
2022/02/03 06:30:17;;;;;;;1.13;0.52;;;;;;;;;;5073607;28;20373;-58
2022/02/03 06:32:43;;;;;;;1.20;0.75;;;;;;;;;;5042314;28;20386;-58
2022/02/03 06:35:11;;;;;;;0.80;0.60;;;;;;;;;;5053416;28;20029;-58
2022/02/03 06:37:37;;;;;;;1.40;0.43;;;;;;;;;;5064213;28;20102;-58
2022/02/03 06:40:07;;;;;;;2.15;0.65;;;;;;;;;;5100578;28;20053;-59
2022/02/03 06:42:33;;;;;;;1.80;0.70;;;;;;;;;;5097431;28;20020;-56
2022/02/03 06:45:32;;;;;;;1.65;0.60;;;;;;;;;;5092933;28;20074;-55
2022/02/03 06:58:03;;;;;;;1.20;0.80;;;;;;;;;;5088661;28;20032;-51
2022/02/03 07:00:34;;;;;;;1.63;0.60;;;;;;;;;;5092505;28;20032;-49
2022/02/03 07:03:02;;;;;;;1.05;0.65;;;;;;;;;;5084658;28;20027;-49
2022/02/03 07:05:28;;;;;;;1.50;0.70;;;;;;;;;;5083062;28;20032;-49
2022/02/03 07:07:55;;;;;;;1.05;0.50;;;;;;;;;;5083113;28;20020;-51
2022/02/03 07:10:22;;;;;;;3.40;0.40;;;;;;;;;;5082969;28;20074;-49
2022/02/03 07:12:48;;;;;;;2.65;1.30;;;;;;;;;;5079983;28;20031;-49
2022/02/03 07:15:14;;;;;;;2.38;0.60;;;;;;;;;;5083384;28;20017;-49
2022/02/03 07:17:40;;;;;;;1.00;0.50;;;;;;;;;;5081648;28;20035;-49
2022/02/03 07:20:08;;;;;;;1.33;0.55;;;;;;;;;;5084427;28;20019;-48
2022/02/03 07:22:35;;;;;;;0.73;0.70;;;;;;;;;;5083227;28;20043;-49
2022/02/03 07:25:02;;;;;;;1.55;0.47;;;;;;;;;;5082027;28;20253;-49
2022/02/03 07:27:28;;;;;;;1.63;0.57;;;;;;;;;;5082884;28;20027;-51
2022/02/03 07:29:54;;;;;;;1.23;0.70;;;;;;;;;;5084381;28;20024;-53
2022/02/03 07:32:21;;;;;;;1.20;0.60;;;;;;;;;;5082327;28;20103;-53
2022/02/03 07:34:51;;;;;;;1.13;0.60;;;;;;;;;;5081846;28;20037;-48
2022/02/03 07:37:18;;;;;;;3.45;0.90;;;;;;;;;;5072960;28;20080;-53
2022/02/03 07:39:45;;;;;;;1.08;0.95;;;;;;;;;;5069713;28;20027;-52
2022/02/03 07:42:12;;;;;;;2.25;1.25;;;;;;;;;;5064047;28;20040;-51
2022/02/03 07:44:38;;;;;;;2.15;1.70;;;;;;;;;;5062443;28;20021;-51
2022/02/03 07:47:05;;;;;;;3.10;1.63;;;;;;;;;;5055863;28;20024;-47
2022/02/03 07:49:33;;;;;;;2.03;1.80;;;;;;;;;;5068227;28;20036;-63
2022/02/03 07:51:59;;;;;;;4.60;1.70;;;;;;;;;;5060510;28;20106;-63
2022/02/03 07:54:25;;;;;;;1.50;1.40;;;;;;;;;;5064170;28;20033;-60
2022/02/03 07:56:51;;;;;;;1.70;1.27;;;;;;;;;;5061612;28;20075;-60
2022/02/03 07:59:17;;;;;;;2.28;1.15;;;;;;;;;;5067080;28;20413;-61
2022/02/03 08:01:43;;;;;;;1.75;1.17;;;;;;;;;;5068588;28;20039;-64
2022/02/03 08:04:10;;;;;;;1.25;0.93;;;;;;;;;;5060992;28;20764;-62
2022/02/03 08:06:41;;;;;;;1.80;0.80;;;;;;;;;;5059937;28;20052;-65
2022/02/03 08:09:14;;;;;;;3.13;0.93;;;;;;;;;;5060343;28;20008;-65
2022/02/03 08:11:45;;;;;;;1.23;0.65;;;;;;;;;;5062208;28;20125;-62
2022/02/03 08:14:21;;;;;;;1.23;0.80;;;;;;;;;;5061581;28;20036;-63
2022/02/03 08:17:03;;;;;;;2.05;0.50;;;;;;;;;;5061057;28;20021;-59
2022/02/03 08:19:37;;;;;;;1.40;0.97;;;;;;;;;;5063408;28;20071;-63
2022/02/03 08:22:17;;;;;;;1.10;0.70;;;;;;;;;;5061291;28;20263;-62
2022/02/03 08:24:48;;;;;;;3.33;1.05;;;;;;;;;;5060225;28;20478;-64
2022/02/03 08:32:25;;;;;;;3.22;0.80;;;;;;;;;;5064781;28;20032;-63
2022/02/03 08:37:21;;;;;;;1.15;0.80;;;;;;;;;;5059721;28;20051;-63
2022/02/03 08:39:56;;;;;;;0.50;0.43;;;;;;;;;;5035626;28;20029;-62
2022/02/03 08:42:23;;;;;;;0.73;0.60;;;;;;;;;;5063915;28;20025;-62
2022/02/03 08:44:49;;;;;;;0.65;0.43;;;;;;;;;;5046125;28;20029;-59
2022/02/03 08:47:16;;;;;;;1.02;0.70;;;;;;;;;;5059557;28;20036;-63
2022/02/03 08:49:46;;;;;;;0.80;0.50;;;;;;;;;;5063143;28;20020;-62
2022/02/03 08:52:18;;;;;;;1.23;0.50;;;;;;;;;;5063779;28;20029;-64
2022/02/03 08:55:00;;;;;;;0.63;0.40;;;;;;;;;;5060156;28;20039;-62
2022/02/03 08:58:15;;;;;;;0.70;0.50;;;;;;;;;;5061676;28;20048;-62
2022/02/03 09:00:53;;;;;;;0.60;0.50;;;;;;;;;;5056480;28;20029;-62
2022/02/03 09:36:32;;;;;;;0.50;0.50;;;;;;;;;;5069818;28;20036;-63
2022/02/03 09:41:47;;;;;;;0.95;0.70;;;;;;;;;;5071475;28;20021;-62
2022/02/03 09:58:23;;;;;;;1.60;0.50;;;;;;;;;;5072313;28;20032;-61
2022/02/03 10:06:17;;;;;;;0.47;0.40;;;;;;;;;;5072622;28;20032;-61
2022/02/03 10:08:49;;;;;;;0.80;0.47;;;;;;;;;;5072162;28;20017;-62
2022/02/03 10:11:28;;;;;;;0.95;0.57;;;;;;;;;;5073017;28;20035;-62
2022/02/03 10:13:58;;;;;;;1.00;0.70;;;;;;;;;;5054392;28;20032;-62
2022/02/03 10:16:28;;;;;;;1.13;0.40;;;;;;;;;;5072584;28;20448;-63
2022/02/03 10:19:03;;;;;;;0.50;0.40;;;;;;;;;;5072062;28;20029;-62
2022/02/03 10:21:29;;;;;;;0.35;0.30;;;;;;;;;;5072750;28;20020;-61
2022/02/03 10:23:58;;;;;;;0.98;0.88;;;;;;;;;;5071886;28;20024;-63
2022/02/03 10:26:30;;;;;;;0.73;0.43;;;;;;;;;;5070387;28;20029;-62
2022/02/03 10:28:58;;;;;;;0.63;0.40;;;;;;;;;;5072351;28;20028;-63
2022/02/03 10:31:25;;;;;;;0.32;0.32;;;;;;;;;;5072658;28;20095;-63
2022/02/03 10:33:59;;;;;;;0.75;0.40;;;;;;;;;;5072083;28;20400;-59
2022/02/03 10:36:48;;;;;;;0.73;0.38;;;;;;;;;;5071046;28;20024;-62
2022/02/03 10:48:03;;;;;;;1.95;0.30;;;;;;;;;;5062217;28;20036;-63
2022/02/03 11:07:07;;;;;;;0.40;0.40;;;;;;;;;;5060791;28;20374;-61
2022/02/03 11:12:30;;;;;;;0.43;0.30;;;;;;;;;;5050484;28;20032;-63
2022/02/03 11:14:58;;;;;;;0.50;0.50;;;;;;;;;;5062390;28;20103;-63
2022/02/03 11:17:26;;;;;;;1.48;0.70;;;;;;;;;;5062588;28;20052;-63
2022/02/03 11:19:56;;;;;;;1.95;0.95;;;;;;;;;;5061677;28;20024;-59
2022/02/03 11:22:30;;;;;;;1.23;0.50;;;;;;;;;;5063290;28;20044;-62
2022/02/03 11:25:22;;;;;;;1.00;0.57;;;;;;;;;;5062213;28;20027;-62
2022/02/03 11:28:10;;;;;;;0.50;0.40;;;;;;;;;;5060943;28;20029;-62
2022/02/03 11:47:24;;;;;;;1.02;0.65;;;;;;;;;;5058331;28;20067;-60
2022/02/03 11:52:50;;;;;;;0.65;0.50;;;;;;;;;;5062509;28;20059;-62
2022/02/03 12:20:52;;;;;;;0.55;0.40;;;;;;;;;;5071305;28;20025;-62
2022/02/03 12:23:53;;;;;;;1.10;0.55;;;;;;;;;;5069917;28;20107;-62
2022/02/03 12:29:04;;;;;;;0.30;0.30;;;;;;;;;;5063688;28;20029;-61
2022/02/03 12:39:32;;;;;;;1.67;0.50;;;;;;;;;;5064442;28;20115;-63
2022/02/03 12:44:29;;;;;;;0.40;0.40;;;;;;;;;;5060889;28;20075;-63
2022/02/03 12:47:02;;;;;;;0.43;0.40;;;;;;;;;;5060166;28;20095;-63
2022/02/03 12:49:30;;;;;;;0.73;0.38;;;;;;;;;;5062161;28;20036;-63
2022/02/03 12:51:56;;;;;;;0.57;0.57;;;;;;;;;;5061641;28;20028;-62
2022/02/03 12:54:22;;;;;;;2.10;0.60;;;;;;;;;;5061185;28;20025;-62
2022/02/03 12:56:48;;;;;;;0.40;0.38;;;;;;;;;;5063416;28;20028;-63
2022/02/03 12:59:16;;;;;;;0.80;0.38;;;;;;;;;;5063058;28;20017;-63
2022/02/03 13:01:45;;;;;;;0.32;0.32;;;;;;;;;;5064049;28;20024;-63
2022/02/03 13:04:14;;;;;;;0.50;0.40;;;;;;;;;;5058870;28;20073;-62
2022/02/03 13:06:54;;;;;;;1.52;0.40;;;;;;;;;;5062564;28;20032;-62
2022/02/03 13:09:34;;;;;;;0.93;0.40;;;;;;;;;;5062877;28;20028;-62
2022/02/03 13:12:15;;;;;;;1.08;0.43;;;;;;;;;;5061894;28;20055;-63
2022/02/03 13:14:49;;;;;;;2.00;0.65;;;;;;;;;;5061461;28;20035;-63
2022/02/03 13:17:21;;;;;;;1.25;0.35;;;;;;;;;;5064618;28;20028;-62
2022/02/03 13:22:31;;;;;;;1.25;0.70;;;;;;;;;;5057939;28;20036;-62
2022/02/03 13:27:34;;;;;;;1.08;0.65;;;;;;;;;;5061422;28;20098;-63
2022/02/03 13:30:06;;;;;;;0.98;0.63;;;;;;;;;;5062872;28;20381;-62
2022/02/03 13:32:41;;;;;;;1.45;0.75;;;;;;;;;;5063326;28;20032;-62
2022/02/03 13:35:26;;;;;;;0.70;0.60;;;;;;;;;;5065915;28;20119;-63
2022/02/03 13:38:00;;;;;;;1.90;0.90;;;;;;;;;;5059787;28;20409;-60
2022/02/03 13:40:28;;;;;;;3.03;0.75;;;;;;;;;;5059494;28;20024;-63
2022/02/03 13:43:06;;;;;;;1.83;0.68;;;;;;;;;;5061054;28;20013;-60
2022/02/03 13:45:33;;;;;;;2.67;0.75;;;;;;;;;;5061152;28;20028;-62
2022/02/03 13:47:59;;;;;;;2.75;0.82;;;;;;;;;;5060552;28;20039;-63
2022/02/03 13:50:28;;;;;;;3.55;0.90;;;;;;;;;;5058617;28;20485;-63
2022/02/03 13:53:11;;;;;;;2.40;0.90;;;;;;;;;;5059135;28;20029;-59
2022/02/03 14:15:18;;;;;;;4.18;0.98;;;;;;;;;;5068644;28;20041;-62
2022/02/03 14:28:18;;;;;;;3.00;1.00;;;;;;;;;;5072536;28;20024;-63
2022/02/03 14:30:51;;;;;;;4.70;0.82;;;;;;;;;;5073293;28;20028;-65
2022/02/03 14:33:25;;;;;;;2.03;0.60;;;;;;;;;;5072909;28;20031;-66
2022/02/03 14:35:51;;;;;;;1.08;0.65;;;;;;;;;;5073315;28;20059;-64
2022/02/03 14:38:26;;;;;;;5.40;0.95;;;;;;;;;;5082491;28;20066;-65
2022/02/03 14:41:34;;;;;;;2.28;0.70;;;;;;;;;;5093130;28;20031;-63
2022/02/03 14:43:45;;;;;;;6.65;1.23;;;;;;;;;;5089765;28;20040;-67
2022/02/03 14:46:14;;;;;;;2.22;1.00;;;;;;;;;;5090858;28;20491;-63
2022/02/03 14:48:43;;;;;;;1.92;0.85;;;;;;;;;;5076338;28;20033;-68
2022/02/03 14:51:12;;;;;;;2.90;1.20;;;;;;;;;;5077062;28;20020;-57
2022/02/03 14:57:59;;;;;;;1.70;0.63;;;;;;;;;;5092287;28;20396;-56
2022/02/03 14:59:23;;;;;;;1.48;0.80;;;;;;;;;;5091597;28;20085;-57
2022/02/03 15:01:49;;;;;;;3.28;1.10;;;;;;;;;;5092824;28;20423;-55
2022/02/03 15:04:24;;;;;;;1.73;0.90;;;;;;;;;;5091544;28;20085;-50
2022/02/03 15:06:58;;;;;;;1.13;0.85;;;;;;;;;;5092669;28;20551;-49
2022/02/03 15:12:26;;;;;;;1.52;0.50;;;;;;;;;;5092150;28;20058;-51
2022/02/03 15:14:52;;;;;;;2.00;0.85;;;;;;;;;;5092891;28;20056;-51
2022/02/03 15:17:21;;;;;;;2.03;0.57;;;;;;;;;;5091387;28;20036;-50
2022/02/03 15:19:47;;;;;;;2.42;0.77;;;;;;;;;;5092028;28;20020;-50
2022/02/03 15:22:13;;;;;;;6.40;0.70;;;;;;;;;;5091772;28;20056;-54
2022/02/03 15:24:39;;;;;;;1.40;0.80;;;;;;;;;;5091231;28;20085;-52
2022/02/03 15:27:05;;;;;;;2.70;0.50;;;;;;;;;;5091568;28;20079;-53
2022/02/03 15:29:31;;;;;;;1.20;0.80;;;;;;;;;;5092406;28;20488;-53
2022/02/03 15:31:58;;;;;;;1.40;0.60;;;;;;;;;;5091220;28;20081;-50
2022/02/03 15:34:24;;;;;;;2.80;0.50;;;;;;;;;;5092289;28;20085;-55
2022/02/03 15:36:53;;;;;;;1.20;0.52;;;;;;;;;;5087996;28;20048;-53
2022/02/03 15:39:24;;;;;;;1.23;0.70;;;;;;;;;;5071551;28;20021;-54
2022/02/03 15:41:53;;;;;;;0.95;0.50;;;;;;;;;;5072100;28;20028;-53
2022/02/03 15:44:19;;;;;;;0.85;0.43;;;;;;;;;;5071013;28;20076;-52
2022/02/03 15:46:59;;;;;;;1.27;0.52;;;;;;;;;;5070788;28;20071;-51
2022/02/03 15:50:09;;;;;;;1.38;0.57;;;;;;;;;;5071934;28;20037;-55
2022/02/03 16:03:25;;;;;;;2.28;1.05;;;;;;;;;;5059919;28;20036;-53
2022/02/03 16:16:53;;;;;;;1.00;0.70;;;;;;;;;;5063228;28;20056;-54
2022/02/03 16:19:22;;;;;;;1.02;0.60;;;;;;;;;;5069682;28;20017;-53
2022/02/03 16:21:58;;;;;;;2.58;0.57;;;;;;;;;;5068065;28;20078;-53
2022/02/03 16:52:07;;;;;;;2.35;0.80;;;;;;;;;;4971738;28;20029;-47
2022/02/03 16:54:33;;;;;;;2.47;1.00;;;;;;;;;;4971035;28;20027;-52
2022/02/03 16:57:04;;;;;;;6.53;0.82;;;;;;;;;;4968309;28;20034;-48
2022/02/03 16:59:32;;;;;;;1.55;0.70;;;;;;;;;;5050780;28;20472;-53
2022/02/03 17:01:58;;;;;;;3.17;0.65;;;;;;;;;;5050865;28;20493;-49
2022/02/03 17:04:24;;;;;;;2.08;0.68;;;;;;;;;;5053198;28;20119;-53
2022/02/03 17:06:51;;;;;;;1.48;0.82;;;;;;;;;;5050988;28;20040;-50
2022/02/03 17:09:17;;;;;;;2.22;0.70;;;;;;;;;;5049950;28;20138;-49
2022/02/03 17:11:42;;;;;;;3.03;0.85;;;;;;;;;;5035331;28;20464;-51
2022/02/03 17:14:08;;;;;;;0.93;0.60;;;;;;;;;;5050449;28;20117;-52
2022/02/03 17:16:35;;;;;;;2.67;0.68;;;;;;;;;;5052940;28;20104;-55
2022/02/03 17:19:01;;;;;;;4.55;1.30;;;;;;;;;;5057656;28;20048;-50
2022/02/03 17:21:29;;;;;;;0.73;0.52;;;;;;;;;;5054439;28;20025;-51
2022/02/03 17:23:56;;;;;;;3.38;0.60;;;;;;;;;;5050973;28;20115;-48
2022/02/03 17:28:59;;;;;;;2.05;0.60;;;;;;;;;;5053955;28;20035;-53
2022/02/03 17:31:37;;;;;;;1.48;0.70;;;;;;;;;;5051964;28;20085;-52
2022/02/03 18:09:51;;;;;;;1.25;0.80;;;;;;;;;;5073685;28;20039;-54
2022/02/03 18:50:24;;;;;;;1.65;0.80;;;;;;;;;;5052681;28;20025;-49
2022/02/03 18:53:57;;;;;;;2.45;0.70;;;;;;;;;;5073647;28;20020;-48
2022/02/03 18:58:38;;;;;;;3.15;0.70;;;;;;;;;;5066081;28;20098;-48
2022/02/03 19:25:24;;;;;;;4.88;0.98;;;;;;;;;;5072008;28;20024;-47
2022/02/03 20:01:20;;;;;;;1.13;0.80;;;;;;;;;;5072460;28;20423;-49
2022/02/03 20:04:11;;;;;;;2.38;0.90;;;;;;;;;;5071754;28;20032;-47
2022/02/03 20:09:15;;;;;;;1.80;1.00;;;;;;;;;;5070403;28;20075;-48
2022/02/03 20:11:41;;;;;;;2.95;1.25;;;;;;;;;;5068862;28;20543;-47
2022/02/03 20:14:12;;;;;;;1.70;1.23;;;;;;;;;;5069828;28;20115;-48
2022/02/03 20:16:42;;;;;;;1.60;1.10;;;;;;;;;;5069026;28;20016;-47
2022/02/03 20:19:09;;;;;;;3.55;1.10;;;;;;;;;;5070451;28;20690;-49
2022/02/03 20:21:36;;;;;;;3.83;1.15;;;;;;;;;;5070968;28;20025;-50
2022/02/03 20:24:04;;;;;;;3.38;1.17;;;;;;;;;;5069982;28;20028;-50
2022/02/03 20:26:31;;;;;;;2.00;1.52;;;;;;;;;;5070921;28;20032;-47
2022/02/03 20:28:57;;;;;;;2.85;1.00;;;;;;;;;;5070224;28;20036;-47
2022/02/03 20:31:23;;;;;;;2.15;1.40;;;;;;;;;;5070088;28;20023;-48
2022/02/03 20:33:49;;;;;;;4.55;1.00;;;;;;;;;;5070206;28;20039;-48
2022/02/03 20:36:15;;;;;;;3.30;1.20;;;;;;;;;;5066023;28;20024;-47
2022/02/03 20:38:41;;;;;;;2.65;1.17;;;;;;;;;;5061906;28;20041;-47
2022/02/03 20:41:07;;;;;;;2.22;1.25;;;;;;;;;;5061907;28;20480;-47
2022/02/03 20:43:33;;;;;;;1.20;0.80;;;;;;;;;;5066549;28;20031;-47
2022/02/03 20:45:59;;;;;;;2.28;1.05;;;;;;;;;;5062653;28;20028;-49
2022/02/03 20:48:29;;;;;;;3.00;1.20;;;;;;;;;;5069017;28;20486;-47
2022/02/03 20:50:55;;;;;;;4.43;1.73;;;;;;;;;;5059878;28;20128;-47
2022/02/03 20:53:21;;;;;;;2.50;1.10;;;;;;;;;;5060772;28;20604;-48
2022/02/03 20:55:48;;;;;;;2.53;1.23;;;;;;;;;;5063816;28;20428;-48
2022/02/03 20:58:17;;;;;;;2.28;1.52;;;;;;;;;;5060683;28;20144;-47
2022/02/03 21:00:49;;;;;;;1.35;1.25;;;;;;;;;;5064416;28;20465;-48
2022/02/03 21:05:44;;;;;;;1.80;1.42;;;;;;;;;;5063943;28;20128;-48
2022/02/03 21:08:11;;;;;;;2.45;1.10;;;;;;;;;;5065875;28;20028;-48
2022/02/03 21:10:37;;;;;;;3.95;1.50;;;;;;;;;;5059906;28;20053;-48
2022/02/03 21:13:03;;;;;;;2.63;1.15;;;;;;;;;;5063924;28;20404;-51
2022/02/03 21:15:36;;;;;;;3.22;1.58;;;;;;;;;;5064795;28;20537;-48
2022/02/03 21:18:05;;;;;;;1.83;1.27;;;;;;;;;;5061568;28;20446;-51
2022/02/03 21:20:31;;;;;;;3.05;1.80;;;;;;;;;;5068702;28;20032;-47
2022/02/03 21:22:57;;;;;;;3.17;1.20;;;;;;;;;;5066613;28;20470;-47
2022/02/03 21:25:31;;;;;;;1.52;1.10;;;;;;;;;;5067563;28;20029;-49
2022/02/03 21:28:05;;;;;;;2.28;1.38;;;;;;;;;;5066416;28;20477;-47
2022/02/03 21:30:31;;;;;;;2.25;1.00;;;;;;;;;;5065387;28;20029;-48
2022/02/03 21:32:57;;;;;;;3.15;1.20;;;;;;;;;;5067914;28;20028;-49
2022/02/03 21:35:23;;;;;;;3.45;1.38;;;;;;;;;;5067310;28;20101;-47
2022/02/03 21:37:50;;;;;;;1.80;1.45;;;;;;;;;;5067891;28;20174;-47
2022/02/03 21:40:17;;;;;;;1.65;1.20;;;;;;;;;;5065337;28;20358;-46
2022/02/03 21:42:43;;;;;;;2.50;1.20;;;;;;;;;;5070558;28;20017;-46
2022/02/03 21:45:10;;;;;;;1.85;1.23;;;;;;;;;;5064774;28;20477;-48
2022/02/03 21:47:36;;;;;;;2.05;1.33;;;;;;;;;;5066755;28;20040;-47
2022/02/03 21:50:04;;;;;;;2.30;1.17;;;;;;;;;;5063018;28;20024;-50
2022/02/03 21:52:45;;;;;;;3.17;1.48;;;;;;;;;;5067184;28;20056;-46
2022/02/03 21:55:11;;;;;;;1.52;1.20;;;;;;;;;;5066997;28;20419;-48
2022/02/03 21:57:41;;;;;;;1.90;1.30;;;;;;;;;;5064627;28;20060;-47
2022/02/03 22:00:08;;;;;;;1.52;1.08;;;;;;;;;;5066816;28;20028;-48
2022/02/03 22:02:34;;;;;;;1.77;1.17;;;;;;;;;;5047074;28;20466;-47
2022/02/03 22:05:01;;;;;;;2.08;1.27;;;;;;;;;;5066991;28;20487;-46
2022/02/03 22:07:27;;;;;;;2.38;1.50;;;;;;;;;;5064227;28;20059;-47
2022/02/03 22:09:53;;;;;;;2.28;1.50;;;;;;;;;;5067687;28;20029;-48
2022/02/03 22:12:19;;;;;;;3.53;1.65;;;;;;;;;;5064857;28;20209;-47
2022/02/03 22:14:45;;;;;;;1.38;1.05;;;;;;;;;;5071055;28;20416;-48
2022/02/03 22:17:12;;;;;;;2.05;1.10;;;;;;;;;;5072903;28;20028;-50
2022/02/03 22:19:43;;;;;;;3.00;1.50;;;;;;;;;;5073774;28;20176;-47
2022/02/03 22:22:31;;;;;;;;;;;;;;;;;;5073259;28;20024;-48
2022/02/03 22:27:40;;;;;;;3.28;1.70;;;;;;;;;;5072559;28;20481;-48
2022/02/03 22:38:40;;;;;;;2.00;1.30;;;;;;;;;;5072950;28;20055;-47
2022/02/03 22:49:10;;;;;;;1.63;1.20;;;;;;;;;;5059215;28;20032;-49
2022/02/03 22:51:37;;;;;;;1.65;1.10;;;;;;;;;;5055761;28;20032;-48
2022/02/03 22:54:06;;;;;;;1.77;1.33;;;;;;;;;;5073037;28;20033;-47
2022/02/03 22:56:33;;;;;;;2.38;1.60;;;;;;;;;;5073787;28;20039;-46
2022/02/03 23:01:43;;;;;;;2.60;1.60;;;;;;;;;;5073037;28;20028;-46
2022/02/03 23:04:11;;;;;;;2.40;1.50;;;;;;;;;;5072393;28;20032;-46
2022/02/03 23:06:37;;;;;;;2.90;1.85;;;;;;;;;;5073475;28;20044;-49
2022/02/03 23:09:15;;;;;;;2.40;1.33;;;;;;;;;;5061690;28;20024;-49
2022/02/03 23:15:13;;;;;;;2.28;1.30;;;;;;;;;;5059636;28;20067;-50
2022/02/03 23:17:36;;;;;;;2.15;1.20;;;;;;;;;;5071788;28;20033;-51
2022/02/03 23:20:19;;;;;;;1.95;1.40;;;;;;;;;;5072923;28;20132;-47
2022/02/03 23:22:45;;;;;;;2.40;1.20;;;;;;;;;;5073316;28;20021;-50
2022/02/03 23:25:14;;;;;;;1.58;1.42;;;;;;;;;;5072433;28;20111;-49
2022/02/03 23:30:14;;;;;;;1.83;1.00;;;;;;;;;;5072079;28;20496;-52
2022/02/03 23:32:40;;;;;;;1.98;1.38;;;;;;;;;;5072797;28;20418;-49
2022/02/03 23:35:18;;;;;;;1.38;0.95;;;;;;;;;;5072018;28;20036;-51
2022/02/03 23:37:49;;;;;;;1.52;1.10;;;;;;;;;;5072703;28;20135;-50
2022/02/03 23:51:21;;;;;;;2.33;1.63;;;;;;;;;;5072878;28;20141;-51
